Time;durP1;ratioP1;P1;durP2;ratioP2;P2;SDS_P1;SDS_P2;PMS_P1;PMS_P2;Temp;Humidity;BMP_temperature;BMP_pressure;BME280_temperature;BME280_humidity;BME280_pressure;Samples;Min_cycle;Max_cycle;Signal;HPM_P1;HPM_P2
2023/02/20 00:00:59;;;;;;;9.90;3.70;;;;;;;8.39;100.00;99275.31;5054382;28;20212;-81
2023/02/20 00:03:26;;;;;;;7.83;3.47;;;;;;;8.34;100.00;99277.28;5053903;28;20208;-82
2023/02/20 00:05:53;;;;;;;7.23;3.97;;;;;;;8.28;100.00;99278.41;5054169;28;20295;-82
2023/02/20 00:08:19;;;;;;;6.23;4.10;;;;;;;8.23;100.00;99275.09;5053887;28;20217;-81
2023/02/20 00:10:46;;;;;;;5.70;3.30;;;;;;;8.19;100.00;99277.84;5053897;28;20310;-82
2023/02/20 00:13:12;;;;;;;4.20;3.30;;;;;;;8.16;100.00;99272.72;5054254;28;20358;-82
2023/02/20 00:15:39;;;;;;;5.87;3.33;;;;;;;8.13;100.00;99259.69;5053730;28;20233;-82
2023/02/20 00:18:06;;;;;;;6.53;3.40;;;;;;;8.07;100.00;99273.09;5053818;28;20294;-82
2023/02/20 00:20:35;;;;;;;8.97;4.60;;;;;;;7.99;100.00;99269.94;5054252;28;20296;-82
2023/02/20 00:23:01;;;;;;;8.30;3.93;;;;;;;7.92;100.00;99263.22;5053907;28;20248;-82
2023/02/20 00:25:28;;;;;;;6.27;3.47;;;;;;;7.88;100.00;99266.88;5079180;23;20246;-83
2023/02/20 00:27:54;;;;;;;5.93;3.20;;;;;;;7.85;100.00;99269.66;5073237;28;20212;-83
2023/02/20 00:30:22;;;;;;;6.90;3.70;;;;;;;7.84;100.00;99268.78;5073867;28;20225;-83
2023/02/20 00:32:51;;;;;;;4.60;3.27;;;;;;;7.78;100.00;99268.19;5074063;28;20550;-83
2023/02/20 00:35:20;;;;;;;5.60;3.53;;;;;;;7.75;100.00;99271.78;5074084;28;20245;-83
2023/02/20 00:37:47;;;;;;;7.20;3.90;;;;;;;7.79;100.00;99283.06;5073456;28;20290;-83
2023/02/20 00:40:15;;;;;;;6.37;3.77;;;;;;;7.80;100.00;99287.38;5074310;28;20207;-84
2023/02/20 00:42:41;;;;;;;7.67;3.43;;;;;;;7.83;100.00;99289.91;5074266;28;20206;-84
2023/02/20 00:45:09;;;;;;;3.67;2.77;;;;;;;7.85;100.00;99298.59;5074491;28;20262;-84
2023/02/20 00:47:35;;;;;;;7.57;3.20;;;;;;;7.87;100.00;99302.00;5074128;28;20208;-84
2023/02/20 00:50:02;;;;;;;8.23;3.70;;;;;;;7.85;100.00;99299.44;5074274;28;20215;-84
2023/02/20 00:52:30;;;;;;;6.53;3.47;;;;;;;7.85;100.00;99294.16;5073835;28;20207;-84
2023/02/20 00:54:56;;;;;;;5.90;3.47;;;;;;;7.83;100.00;99289.91;5073839;28;20709;-84
2023/02/20 00:57:23;;;;;;;10.83;3.60;;;;;;;7.74;100.00;99299.03;5073504;28;20213;-84
2023/02/20 00:59:50;;;;;;;6.93;3.17;;;;;;;7.71;100.00;99285.13;5074083;28;20727;-84
2023/02/20 01:02:17;;;;;;;7.07;3.10;;;;;;;7.64;100.00;99289.78;5074019;28;20639;-84
2023/02/20 01:04:43;;;;;;;7.57;3.30;;;;;;;7.65;100.00;99291.47;5073834;28;20227;-84
2023/02/20 01:07:10;;;;;;;8.17;3.33;;;;;;;7.66;100.00;99287.09;5073611;28;20204;-84
2023/02/20 01:09:38;;;;;;;7.77;2.87;;;;;;;7.66;100.00;99290.56;5073998;28;20203;-84
2023/02/20 01:12:04;;;;;;;7.40;3.57;;;;;;;7.70;100.00;99299.19;5073841;28;20214;-84
2023/02/20 01:14:31;;;;;;;8.40;3.47;;;;;;;7.71;100.00;99293.03;5073883;28;20262;-84
2023/02/20 01:16:58;;;;;;;4.83;3.13;;;;;;;7.69;100.00;99281.69;5073637;28;20208;-84
2023/02/20 01:19:25;;;;;;;9.03;3.80;;;;;;;7.62;100.00;99282.84;5073761;28;20210;-84
2023/02/20 01:21:51;;;;;;;6.80;3.33;;;;;;;7.55;100.00;99271.72;5073687;28;20621;-84
2023/02/20 01:24:18;;;;;;;5.33;3.23;;;;;;;7.50;100.00;99270.19;5073135;28;20227;-83
2023/02/20 01:26:47;;;;;;;7.93;3.50;;;;;;;7.41;100.00;99278.44;5073484;28;20200;-83
2023/02/20 01:29:16;;;;;;;5.97;3.37;;;;;;;7.34;100.00;99271.72;5073627;28;20289;-83
2023/02/20 01:31:47;;;;;;;5.40;3.40;;;;;;;7.28;100.00;99274.56;5073334;28;20214;-83
2023/02/20 01:34:13;;;;;;;4.93;3.23;;;;;;;7.18;100.00;99274.03;5073237;28;20241;-83
2023/02/20 01:36:45;;;;;;;9.27;3.80;;;;;;;7.15;100.00;99275.91;5072965;28;20211;-83
2023/02/20 01:39:12;;;;;;;6.40;3.53;;;;;;;7.14;100.00;99271.59;5073094;28;20219;-84
2023/02/20 01:41:39;;;;;;;6.97;3.80;;;;;;;7.12;100.00;99270.78;5073122;28;20207;-83
2023/02/20 01:44:17;;;;;;;5.00;3.30;;;;;;;7.11;100.00;99271.72;5073477;28;20235;-83
2023/02/20 01:46:53;;;;;;;7.57;3.47;;;;;;;7.09;100.00;99263.00;5073794;28;20214;-83
2023/02/20 01:49:28;;;;;;;6.40;3.47;;;;;;;7.03;100.00;99263.22;5073307;28;20206;-83
2023/02/20 01:52:01;;;;;;;5.60;3.30;;;;;;;7.00;100.00;99260.72;5073870;28;20209;-83
2023/02/20 01:54:29;;;;;;;6.63;3.60;;;;;;;6.96;100.00;99261.75;5072865;28;20237;-83
2023/02/20 01:56:58;;;;;;;6.27;3.57;;;;;;;6.92;100.00;99257.53;5072587;28;20211;-83
2023/02/20 01:59:28;;;;;;;7.17;3.97;;;;;;;6.91;100.00;99263.69;5071905;28;20204;-83
2023/02/20 02:01:55;;;;;;;6.47;3.50;;;;;;;6.88;100.00;99255.94;5071218;28;20235;-83
2023/02/20 02:04:22;;;;;;;9.27;3.73;;;;;;;6.92;100.00;99254.91;5072906;28;20236;-83
2023/02/20 02:06:51;;;;;;;6.40;3.67;;;;;;;6.86;100.00;99249.00;5072475;28;20214;-83
2023/02/20 02:09:26;;;;;;;8.70;3.63;;;;;;;6.85;100.00;99253.41;5072511;28;20204;-83
2023/02/20 02:11:52;;;;;;;5.77;3.60;;;;;;;6.84;100.00;99256.94;5071958;28;20208;-83
2023/02/20 02:14:19;;;;;;;6.70;3.20;;;;;;;6.86;100.00;99249.88;5072358;28;20239;-83
2023/02/20 02:16:57;;;;;;;5.00;3.37;;;;;;;6.86;100.00;99246.38;5072374;28;20207;-83
2023/02/20 02:19:49;;;;;;;5.50;3.97;;;;;;;6.79;100.00;99247.53;5072494;28;20207;-83
2023/02/20 02:22:48;;;;;;;7.47;3.87;;;;;;;6.76;100.00;99247.63;5072223;28;20224;-83
2023/02/20 02:25:24;;;;;;;7.20;3.40;;;;;;;6.77;100.00;99246.72;5072282;28;20242;-83
2023/02/20 02:28:39;;;;;;;6.13;3.43;;;;;;;6.77;100.00;99255.44;5072078;28;20614;-83
2023/02/20 02:31:44;;;;;;;7.53;3.60;;;;;;;6.73;100.00;99247.75;5072159;28;20548;-83
2023/02/20 02:34:56;;;;;;;5.70;3.37;;;;;;;6.64;100.00;99243.69;5072195;28;20606;-83
2023/02/20 02:37:30;;;;;;;4.33;3.23;;;;;;;6.55;100.00;99251.91;5008899;28;20206;-83
2023/02/20 02:40:02;;;;;;;5.50;3.57;;;;;;;6.56;100.00;99253.63;5072263;28;20212;-83
2023/02/20 02:42:41;;;;;;;9.70;4.17;;;;;;;6.53;100.00;99256.31;5072091;28;20647;-83
2023/02/20 02:45:14;;;;;;;5.53;3.90;;;;;;;6.50;100.00;99256.44;5072009;28;20259;-83
2023/02/20 02:47:48;;;;;;;10.57;4.20;;;;;;;6.56;100.00;99250.13;5071626;28;20551;-83
2023/02/20 02:50:21;;;;;;;6.20;3.67;;;;;;;6.54;100.00;99246.69;5072150;28;20208;-83
2023/02/20 02:52:52;;;;;;;6.20;3.67;;;;;;;6.60;100.00;99241.22;5072054;28;20230;-83
2023/02/20 02:55:21;;;;;;;6.60;3.80;;;;;;;6.64;100.00;99241.06;5071838;28;20232;-83
2023/02/20 02:57:48;;;;;;;7.07;3.70;;;;;;;6.62;100.00;99235.00;5071689;28;20209;-83
2023/02/20 03:00:18;;;;;;;8.03;3.67;;;;;;;6.60;100.00;99228.94;5071859;28;20209;-83
2023/02/20 03:02:53;;;;;;;7.97;3.83;;;;;;;6.60;100.00;99233.34;5072238;28;20580;-84
2023/02/20 03:05:24;;;;;;;7.10;3.57;;;;;;;6.62;100.00;99239.38;5072574;28;20221;-83
2023/02/20 03:07:56;;;;;;;8.83;3.67;;;;;;;6.57;100.00;99236.94;5071354;28;20215;-83
2023/02/20 03:10:30;;;;;;;6.30;3.27;;;;;;;6.56;100.00;99237.84;5071735;28;20203;-83
2023/02/20 03:13:01;;;;;;;6.50;3.77;;;;;;;6.53;100.00;99234.47;5071665;28;20216;-83
2023/02/20 03:15:32;;;;;;;7.03;3.67;;;;;;;6.45;100.00;99245.25;5071617;28;20235;-83
2023/02/20 03:18:09;;;;;;;6.77;3.70;;;;;;;6.40;100.00;99233.19;5071132;28;20207;-83
2023/02/20 03:20:40;;;;;;;7.07;4.00;;;;;;;6.37;100.00;99239.41;5071567;28;20221;-83
2023/02/20 03:23:10;;;;;;;5.10;3.67;;;;;;;6.33;100.00;99231.69;5070672;28;20215;-83
2023/02/20 03:25:41;;;;;;;5.30;3.90;;;;;;;6.27;100.00;99231.88;5071154;28;20239;-83
2023/02/20 03:28:10;;;;;;;5.07;3.13;;;;;;;6.20;100.00;99230.38;5071514;28;20551;-83
2023/02/20 03:30:43;;;;;;;5.13;3.23;;;;;;;6.13;100.00;99235.00;5071427;28;20214;-83
2023/02/20 03:44:25;;;;;;;5.47;3.67;;;;;;;6.29;100.00;99244.06;5071261;28;20276;-83
2023/02/20 03:46:54;;;;;;;6.90;3.27;;;;;;;6.37;100.00;99239.41;5071084;28;20222;-83
2023/02/20 03:49:26;;;;;;;6.93;3.13;;;;;;;6.45;100.00;99247.88;5071222;28;20213;-83
2023/02/20 03:51:54;;;;;;;6.83;3.57;;;;;;;6.54;100.00;99251.94;5071131;28;20212;-83
2023/02/20 03:54:22;;;;;;;5.57;2.90;;;;;;;6.53;100.00;99235.31;5070857;28;20243;-83
2023/02/20 03:56:53;;;;;;;7.83;3.10;;;;;;;6.53;100.00;99240.56;5071147;28;20246;-83
2023/02/20 03:59:23;;;;;;;4.87;3.10;;;;;;;6.45;100.00;99242.63;5071143;28;20212;-83
2023/02/20 04:01:54;;;;;;;5.97;2.83;;;;;;;6.39;100.00;99242.84;5071118;28;20215;-83
2023/02/20 04:04:28;;;;;;;6.03;3.33;;;;;;;6.26;100.00;99236.31;5070841;28;20595;-83
2023/02/20 04:06:56;;;;;;;4.10;3.53;;;;;;;6.17;100.00;99231.34;5070505;28;20211;-83
2023/02/20 04:09:28;;;;;;;5.60;3.80;;;;;;;6.09;100.00;99225.50;5070850;28;20205;-83
2023/02/20 04:12:00;;;;;;;7.53;3.60;;;;;;;6.08;100.00;99230.81;5071125;28;20212;-83
2023/02/20 04:14:29;;;;;;;6.77;3.50;;;;;;;6.05;100.00;99229.13;5070728;28;20238;-83
2023/02/20 04:17:02;;;;;;;5.20;3.03;;;;;;;5.96;100.00;99226.84;5070602;28;20210;-83
2023/02/20 04:19:29;;;;;;;4.93;3.23;;;;;;;5.91;100.00;99225.25;5070704;28;20224;-83
2023/02/20 04:21:59;;;;;;;6.47;3.33;;;;;;;5.82;100.00;99213.34;5070891;28;20588;-83
2023/02/20 04:24:31;;;;;;;7.83;3.40;;;;;;;5.76;100.00;99224.00;5070626;28;20237;-83
2023/02/20 04:26:58;;;;;;;5.73;3.13;;;;;;;5.70;100.00;99216.31;5070616;28;20598;-83
2023/02/20 04:29:25;;;;;;;4.27;3.47;;;;;;;5.63;100.00;99211.31;5070661;28;20218;-83
2023/02/20 04:31:52;;;;;;;6.97;3.60;;;;;;;5.62;100.00;99210.44;5070692;28;20203;-83
2023/02/20 04:34:18;;;;;;;6.43;3.70;;;;;;;5.58;100.00;99218.47;5070672;28;20246;-83
2023/02/20 04:36:45;;;;;;;5.27;3.27;;;;;;;5.57;100.00;99216.78;5074135;28;20558;-83
2023/02/20 04:39:11;;;;;;;7.27;3.37;;;;;;;5.49;100.00;99209.13;5074434;28;20245;-82
2023/02/20 04:41:39;;;;;;;6.63;3.63;;;;;;;5.45;100.00;99217.16;5074353;28;20211;-83
2023/02/20 04:46:50;;;;;;;7.43;3.40;;;;;;;5.37;100.00;99222.63;5074082;28;20216;-83
2023/02/20 04:49:16;;;;;;;8.40;4.10;;;;;;;5.37;100.00;99219.16;5074215;28;20208;-83
2023/02/20 04:51:43;;;;;;;4.10;3.27;;;;;;;5.39;100.00;99231.31;5074270;28;20226;-82
2023/02/20 04:54:09;;;;;;;6.57;3.17;;;;;;;5.36;100.00;99227.91;5073948;28;20233;-82
2023/02/20 04:56:35;;;;;;;6.43;3.67;;;;;;;5.31;100.00;99232.47;5073688;28;20216;-83
2023/02/20 04:59:03;;;;;;;4.90;3.47;;;;;;;5.19;100.00;99225.81;5073804;28;20702;-83
2023/02/20 05:01:30;;;;;;;4.40;3.50;;;;;;;5.11;100.00;99230.44;5073962;28;20211;-83
2023/02/20 05:03:56;;;;;;;5.27;3.60;;;;;;;5.05;100.00;99228.00;5073861;28;20206;-82
2023/02/20 05:06:23;;;;;;;6.50;3.60;;;;;;;5.04;100.00;99226.28;5073647;28;20214;-83
2023/02/20 05:08:49;;;;;;;6.57;3.63;;;;;;;5.02;100.00;99220.22;5073937;28;20590;-82
2023/02/20 05:11:16;;;;;;;6.27;3.87;;;;;;;5.01;100.00;99215.06;5073750;28;20204;-83
2023/02/20 05:13:43;;;;;;;6.67;3.53;;;;;;;5.00;100.00;99222.03;5073429;28;20218;-83
2023/02/20 05:16:12;;;;;;;9.37;3.50;;;;;;;4.99;100.00;99225.56;5073422;28;20234;-83
2023/02/20 05:18:39;;;;;;;8.07;3.50;;;;;;;4.98;100.00;99221.25;5073733;28;20207;-83
2023/02/20 05:23:50;;;;;;;5.37;3.43;;;;;;;4.93;100.00;99223.13;5073628;28;20229;-83
2023/02/20 05:26:19;;;;;;;7.27;4.07;;;;;;;4.97;100.00;99227.38;5073011;28;20223;-83
2023/02/20 05:28:46;;;;;;;8.20;3.57;;;;;;;4.98;100.00;99216.00;5073461;28;20212;-83
2023/02/20 05:31:14;;;;;;;6.33;3.50;;;;;;;4.94;100.00;99219.59;5073495;28;20212;-83
2023/02/20 05:33:40;;;;;;;5.93;3.53;;;;;;;5.03;100.00;99216.72;5073391;28;20583;-83
2023/02/20 05:36:08;;;;;;;8.73;3.97;;;;;;;5.02;100.00;99222.84;5072954;28;20662;-83
2023/02/20 05:38:34;;;;;;;7.60;4.73;;;;;;;5.02;100.00;99225.47;5072988;28;20218;-83
2023/02/20 05:41:00;;;;;;;7.17;3.63;;;;;;;4.99;100.00;99224.69;5073332;28;20218;-83
2023/02/20 05:43:27;;;;;;;6.63;3.87;;;;;;;5.05;100.00;99212.28;5072935;28;20237;-83
2023/02/20 05:45:53;;;;;;;6.57;3.97;;;;;;;4.99;100.00;99228.19;5072919;28;20240;-83
2023/02/20 05:48:21;;;;;;;7.30;3.80;;;;;;;4.93;100.00;99228.38;5072205;28;20217;-83
2023/02/20 05:50:49;;;;;;;5.47;3.87;;;;;;;4.88;100.00;99230.25;5072901;28;20215;-83
2023/02/20 05:53:15;;;;;;;8.07;4.13;;;;;;;4.80;100.00;99228.75;5072890;28;20255;-83
2023/02/20 05:55:42;;;;;;;7.23;4.43;;;;;;;4.74;100.00;99227.19;5072819;28;20235;-83
2023/02/20 05:58:08;;;;;;;6.00;3.53;;;;;;;4.77;100.00;99226.25;5072633;28;20211;-83
2023/02/20 06:00:35;;;;;;;6.60;4.17;;;;;;;4.75;100.00;99223.66;5072813;28;20216;-83
2023/02/20 06:03:01;;;;;;;8.87;4.03;;;;;;;4.80;100.00;99220.91;5072807;28;20235;-83
2023/02/20 06:05:29;;;;;;;7.17;4.20;;;;;;;4.76;100.00;99214.91;5072559;28;20234;-83
2023/02/20 06:07:56;;;;;;;9.07;4.37;;;;;;;4.77;100.00;99216.59;5072261;28;20304;-83
2023/02/20 06:10:23;;;;;;;6.20;4.07;;;;;;;4.82;100.00;99225.19;5072781;28;20266;-83
2023/02/20 06:12:49;;;;;;;10.00;3.90;;;;;;;4.77;100.00;99219.22;5072802;28;20216;-83
2023/02/20 06:15:16;;;;;;;10.00;4.13;;;;;;;4.76;100.00;99219.31;5072443;28;20237;-83
2023/02/20 06:17:42;;;;;;;8.30;4.37;;;;;;;4.72;100.00;99228.13;5072169;28;20213;-83
2023/02/20 06:20:09;;;;;;;6.47;3.97;;;;;;;4.70;100.00;99230.78;5072527;28;20205;-83
2023/02/20 06:22:37;;;;;;;5.50;3.93;;;;;;;4.69;100.00;99229.06;5072379;28;20212;-83
2023/02/20 06:25:05;;;;;;;8.17;3.97;;;;;;;4.70;100.00;99222.94;5081508;22;20597;-77
2023/02/20 06:27:31;;;;;;;6.57;4.17;;;;;;;4.73;100.00;99225.47;5051719;28;20264;-77
2023/02/20 06:29:58;;;;;;;7.33;3.90;;;;;;;4.74;100.00;99236.78;5052089;28;20211;-77
2023/02/20 06:32:24;;;;;;;6.10;3.57;;;;;;;4.71;100.00;99227.25;5052097;28;20218;-77
2023/02/20 06:34:51;;;;;;;5.87;4.13;;;;;;;4.65;100.00;99231.84;5051754;28;20244;-77
2023/02/20 06:37:17;;;;;;;7.27;4.00;;;;;;;4.63;100.00;99234.50;5051977;28;20213;-77
2023/02/20 06:39:46;;;;;;;5.83;4.20;;;;;;;4.61;100.00;99244.16;5052145;28;20258;-76
2023/02/20 06:42:13;;;;;;;7.13;3.93;;;;;;;4.62;100.00;99238.00;5051917;28;20698;-76
2023/02/20 06:44:40;;;;;;;5.90;4.20;;;;;;;4.69;100.00;99234.31;5051606;28;20227;-76
2023/02/20 06:47:09;;;;;;;8.10;4.07;;;;;;;4.73;100.00;99243.81;5051384;28;20748;-77
2023/02/20 06:49:36;;;;;;;9.03;5.40;;;;;;;4.82;100.00;99245.31;5058064;28;20199;-77
2023/02/20 06:52:03;;;;;;;8.83;4.20;;;;;;;4.82;100.00;99246.16;5071549;28;20211;-77
2023/02/20 06:54:30;;;;;;;5.80;4.00;;;;;;;4.84;100.00;99249.56;5071537;28;20223;-77
2023/02/20 06:56:58;;;;;;;8.20;3.90;;;;;;;4.88;100.00;99266.09;5071405;28;20211;-77
2023/02/20 06:59:24;;;;;;;6.83;4.10;;;;;;;4.90;100.00;99262.50;5071614;28;20207;-76
2023/02/20 07:01:51;;;;;;;7.20;4.23;;;;;;;4.96;100.00;99258.84;5071281;28;20210;-77
2023/02/20 07:04:19;;;;;;;4.97;3.70;;;;;;;4.94;100.00;99252.81;5071983;28;20234;-76
2023/02/20 07:06:46;;;;;;;6.30;3.80;;;;;;;4.94;100.00;99251.03;5071365;28;20210;-76
2023/02/20 07:09:13;;;;;;;6.67;4.10;;;;;;;4.97;100.00;99260.56;5071506;28;20207;-78
2023/02/20 07:11:40;;;;;;;10.37;4.50;;;;;;;5.03;100.00;99256.03;5071575;28;20221;-77
2023/02/20 07:14:08;;;;;;;6.13;4.10;;;;;;;5.09;100.00;99261.09;5071396;28;20203;-77
2023/02/20 07:16:34;;;;;;;9.40;4.60;;;;;;;5.18;100.00;99260.78;5070813;28;20235;-77
2023/02/20 07:19:01;;;;;;;8.73;4.70;;;;;;;5.24;100.00;99270.22;5071313;28;20665;-77
2023/02/20 07:21:28;;;;;;;8.70;4.23;;;;;;;5.25;100.00;99262.31;5071406;28;20211;-77
2023/02/20 07:23:54;;;;;;;11.37;4.57;;;;;;;5.33;100.00;99262.09;5071393;28;20270;-77
2023/02/20 07:26:22;;;;;;;7.47;4.00;;;;;;;5.38;100.00;99255.81;5070743;28;20227;-77
2023/02/20 07:28:49;;;;;;;8.73;4.43;;;;;;;5.44;100.00;99263.47;5071154;28;20214;-77
2023/02/20 07:31:17;;;;;;;6.00;4.20;;;;;;;5.44;100.00;99271.34;5071092;28;20309;-77
2023/02/20 07:33:43;;;;;;;12.47;5.83;;;;;;;5.49;100.00;99272.06;5071418;28;20560;-77
2023/02/20 07:36:11;;;;;;;7.10;4.40;;;;;;;5.58;100.00;99277.03;5070711;28;20231;-77
2023/02/20 07:38:38;;;;;;;7.07;4.17;;;;;;;5.65;100.00;99267.19;5071054;28;20211;-77
2023/02/20 07:41:05;;;;;;;5.50;4.17;;;;;;;5.70;100.00;99271.41;5071167;28;20213;-77
2023/02/20 07:43:31;;;;;;;5.53;4.03;;;;;;;5.74;100.00;99273.00;5070970;28;20207;-76
2023/02/20 07:45:58;;;;;;;6.10;4.00;;;;;;;5.82;100.00;99281.53;5071102;28;20231;-76
2023/02/20 07:48:26;;;;;;;8.67;4.60;;;;;;;5.85;100.00;99259.56;5071032;28;20215;-76
2023/02/20 07:50:52;;;;;;;9.10;4.50;;;;;;;5.96;100.00;99257.47;5071018;28;20207;-76
2023/02/20 07:53:21;;;;;;;7.13;4.43;;;;;;;6.08;100.00;99247.44;5071047;28;20208;-76
2023/02/20 07:55:47;;;;;;;6.60;4.03;;;;;;;6.16;100.00;99245.38;5070684;28;20231;-76
2023/02/20 07:58:14;;;;;;;6.87;4.43;;;;;;;6.20;100.00;99236.50;5070649;28;20209;-76
2023/02/20 08:00:40;;;;;;;9.20;4.97;;;;;;;6.28;100.00;99244.97;5071074;28;20577;-75
2023/02/20 08:03:07;;;;;;;5.80;4.10;;;;;;;6.29;100.00;99241.44;5071241;28;20234;-75
2023/02/20 08:05:34;;;;;;;10.77;4.67;;;;;;;6.38;100.00;99243.75;5071196;28;20229;-75
2023/02/20 08:08:01;;;;;;;8.67;4.37;;;;;;;6.47;100.00;99232.91;5070705;28;20207;-75
2023/02/20 08:10:28;;;;;;;6.37;4.27;;;;;;;6.55;100.00;99228.25;5072883;28;20228;-76
2023/02/20 08:12:55;;;;;;;6.63;3.63;;;;;;;6.62;100.00;99227.13;5074680;28;20218;-76
2023/02/20 08:15:22;;;;;;;7.10;4.10;;;;;;;6.66;100.00;99223.44;5074563;28;20231;-77
2023/02/20 08:17:49;;;;;;;7.77;4.03;;;;;;;6.75;100.00;99225.75;5074610;28;20219;-76
2023/02/20 08:20:19;;;;;;;5.37;3.33;;;;;;;6.80;100.00;99217.69;5074840;28;20242;-76
2023/02/20 08:22:48;;;;;;;6.53;4.00;;;;;;;6.94;100.00;99213.66;5075019;28;20225;-76
2023/02/20 08:25:16;;;;;;;6.10;3.97;;;;;;;7.00;100.00;99210.78;5074282;28;20622;-77
2023/02/20 08:27:44;;;;;;;5.13;3.60;;;;;;;7.09;100.00;99213.06;5072936;28;20211;-77
2023/02/20 08:30:13;;;;;;;8.60;4.00;;;;;;;7.33;100.00;99220.88;5072887;28;20214;-77
2023/02/20 08:32:40;;;;;;;7.87;3.30;;;;;;;7.40;100.00;99226.72;5073721;28;20211;-77
2023/02/20 08:35:07;;;;;;;7.40;3.50;;;;;;;7.42;100.00;99217.03;5073573;28;20227;-77
2023/02/20 08:37:33;;;;;;;7.47;3.10;;;;;;;7.51;100.00;99224.53;5055682;28;20211;-76
2023/02/20 08:40:05;;;;;;;6.40;3.37;;;;;;;7.56;100.00;99214.69;5033838;28;20232;-77
2023/02/20 08:42:32;;;;;;;4.60;3.07;;;;;;;7.61;100.00;99216.25;5033263;28;20218;-76
2023/02/20 08:44:59;;;;;;;5.93;3.50;;;;;;;7.70;100.00;99205.31;5033980;28;20605;-75
2023/02/20 08:47:25;;;;;;;4.77;3.20;;;;;;;7.83;97.00;99192.53;5033978;28;20228;-76
2023/02/20 08:49:52;;;;;;;6.03;3.10;;;;;;;7.86;97.50;99195.03;5034143;28;20210;-75
2023/02/20 08:52:19;;;;;;;5.30;2.60;;;;;;;8.00;96.31;99203.19;5033784;28;20222;-75
2023/02/20 08:54:45;;;;;;;7.53;3.33;;;;;;;8.00;96.36;99197.94;5034292;28;20238;-76
2023/02/20 08:57:14;;;;;;;5.00;2.73;;;;;;;8.02;96.88;99202.22;5033628;28;20262;-74
2023/02/20 08:59:40;;;;;;;4.73;2.70;;;;;;;8.11;96.35;99203.59;5034100;28;20214;-74
2023/02/20 09:02:08;;;;;;;5.83;2.63;;;;;;;8.18;95.80;99202.41;5033809;28;20586;-74
2023/02/20 09:04:35;;;;;;;5.27;2.77;;;;;;;8.25;95.34;99203.88;5033795;28;20232;-75
2023/02/20 09:07:01;;;;;;;4.73;2.57;;;;;;;8.31;95.11;99193.97;5033486;28;20580;-74
2023/02/20 09:09:29;;;;;;;6.13;3.13;;;;;;;8.47;93.07;99188.88;5033994;28;20298;-74
2023/02/20 09:11:55;;;;;;;5.10;2.53;;;;;;;8.56;90.75;99175.31;5033763;28;20218;-75
2023/02/20 09:14:23;;;;;;;4.50;2.80;;;;;;;8.67;90.50;99175.66;5033695;28;20255;-75
2023/02/20 09:16:52;;;;;;;4.30;2.60;;;;;;;8.82;89.14;99164.44;5033437;28;20606;-74
2023/02/20 09:19:20;;;;;;;5.57;2.85;;;;;;;8.98;88.57;99168.06;5033042;28;20440;-75
2023/02/20 09:21:46;;;;;;;5.10;2.60;;;;;;;9.09;88.11;99163.16;5032006;28;20696;-75
2023/02/20 09:24:13;;;;;;;6.50;2.70;;;;;;;9.23;87.20;99156.28;5032984;28;20206;-75
2023/02/20 09:26:39;;;;;;;5.30;2.63;;;;;;;9.43;84.50;99142.16;5032045;28;20220;-75
2023/02/20 09:29:06;;;;;;;3.50;2.27;;;;;;;9.57;83.65;99142.31;5031801;28;20221;-75
2023/02/20 09:31:34;;;;;;;3.90;2.43;;;;;;;9.74;80.83;99137.91;5033434;28;20216;-75
2023/02/20 09:34:00;;;;;;;3.00;2.37;;;;;;;9.95;78.38;99114.84;5033164;28;20554;-76
2023/02/20 09:36:27;;;;;;;5.63;2.23;;;;;;;10.14;76.82;99120.94;5031478;28;20239;-77
2023/02/20 09:38:54;;;;;;;3.00;2.27;;;;;;;10.33;75.89;99113.78;5033045;28;20209;-77
2023/02/20 09:41:35;;;;;;;5.60;1.93;;;;;;;10.53;74.00;99108.28;5032050;28;20213;-77
2023/02/20 09:44:11;;;;;;;4.77;2.20;;;;;;;10.67;72.71;99105.72;5032947;28;20584;-76
2023/02/20 09:46:42;;;;;;;4.00;2.20;;;;;;;10.84;71.52;99097.75;5032417;28;20536;-76
2023/02/20 09:49:12;;;;;;;6.50;2.17;;;;;;;10.91;71.09;99085.88;5031415;28;20212;-76
2023/02/20 09:51:42;;;;;;;2.33;1.80;;;;;;;10.93;70.06;99092.78;5033144;28;20231;-76
2023/02/20 09:54:14;;;;;;;4.90;2.27;;;;;;;10.95;69.99;99095.38;5031968;28;20808;-76
2023/02/20 09:56:44;;;;;;;2.93;1.90;;;;;;;10.94;71.18;99104.25;5032209;28;20256;-76
2023/02/20 09:59:17;;;;;;;3.83;2.17;;;;;;;10.82;70.58;99099.63;5033076;28;20196;-77
2023/02/20 10:01:53;;;;;;;3.20;1.83;;;;;;;10.78;70.80;99098.06;5031460;28;20213;-76
2023/02/20 10:04:22;;;;;;;4.07;1.87;;;;;;;10.69;71.59;99102.06;5032887;28;20583;-76
2023/02/20 10:06:51;;;;;;;3.77;2.10;;;;;;;10.65;73.21;99107.63;5031568;28;20885;-75
2023/02/20 10:09:17;;;;;;;5.67;2.27;;;;;;;10.73;72.99;99105.41;5031854;28;20281;-76
2023/02/20 10:12:11;;;;;;;5.47;2.40;;;;;;;10.79;72.05;99094.50;5032748;28;20214;-78
2023/02/20 10:14:52;;;;;;;7.77;2.50;;;;;;;10.82;71.67;99089.06;5030759;28;20792;-77
2023/02/20 10:17:33;;;;;;;4.30;2.07;;;;;;;10.82;71.42;99089.06;5032247;28;20319;-77
2023/02/20 10:20:05;;;;;;;5.70;2.40;;;;;;;10.72;71.71;99088.69;5031671;28;20228;-77
2023/02/20 10:22:34;;;;;;;4.43;2.20;;;;;;;10.65;71.10;99092.59;5032071;28;20233;-77
2023/02/20 10:25:11;;;;;;;6.27;2.33;;;;;;;10.64;72.16;99084.75;5032353;28;20289;-76
2023/02/20 10:27:52;;;;;;;4.90;2.57;;;;;;;10.72;72.83;99093.13;5032058;28;20204;-75
2023/02/20 10:30:23;;;;;;;4.90;2.57;;;;;;;10.75;72.69;99091.16;5031962;28;20263;-76
2023/02/20 10:32:56;;;;;;;4.67;2.20;;;;;;;10.81;71.76;99082.03;5030270;28;20255;-76
2023/02/20 10:35:26;;;;;;;4.50;2.20;;;;;;;10.96;72.45;99097.91;5032070;28;20229;-76
2023/02/20 10:37:57;;;;;;;3.43;2.10;;;;;;;11.01;70.67;99085.28;5031067;28;20217;-76
2023/02/20 10:40:31;;;;;;;10.73;2.70;;;;;;;11.06;70.42;99077.09;5031581;28;20238;-76
2023/02/20 10:43:03;;;;;;;3.37;2.10;;;;;;;11.09;70.40;99077.78;5031835;28;20222;-76
2023/02/20 10:45:42;;;;;;;4.93;1.97;;;;;;;11.12;69.04;99072.31;5030358;28;20240;-76
2023/02/20 10:48:14;;;;;;;4.13;2.47;;;;;;;11.14;69.45;99075.72;5031886;28;20684;-75
2023/02/20 10:50:47;;;;;;;2.70;1.77;;;;;;;11.21;68.00;99065.63;5031324;28;20216;-75
2023/02/20 10:53:25;;;;;;;2.57;1.90;;;;;;;11.24;69.03;99070.75;5030900;28;20227;-76
2023/02/20 10:55:58;;;;;;;4.93;2.47;;;;;;;11.30;68.77;99065.09;5031916;28;20656;-76
2023/02/20 10:58:30;;;;;;;5.57;2.20;;;;;;;11.36;68.12;99064.75;5029863;28;20212;-78
2023/02/20 11:01:00;;;;;;;4.60;1.90;;;;;;;11.47;67.14;99038.50;5031874;28;20214;-75
2023/02/20 11:03:36;;;;;;;6.10;2.30;;;;;;;11.46;66.75;99039.47;5031228;28;20213;-76
2023/02/20 11:06:06;;;;;;;2.90;1.90;;;;;;;11.51;68.04;99042.69;5031360;28;20228;-76
2023/02/20 11:08:32;;;;;;;5.93;1.90;;;;;;;11.49;68.06;99049.88;5031192;28;20215;-75
2023/02/20 11:11:05;;;;;;;4.90;2.07;;;;;;;11.50;67.75;99041.84;5030532;28;20224;-75
2023/02/20 11:13:33;;;;;;;3.30;2.13;;;;;;;11.58;67.16;99033.44;5031502;28;20760;-75
2023/02/20 11:16:00;;;;;;;5.57;1.97;;;;;;;11.58;66.36;99022.84;5029641;28;20231;-74
2023/02/20 11:18:32;;;;;;;3.13;1.80;;;;;;;11.63;66.87;99026.13;5031159;28;20211;-75
2023/02/20 11:20:58;;;;;;;4.10;2.03;;;;;;;11.62;65.82;99016.47;5031500;28;20215;-75
2023/02/20 11:23:35;;;;;;;2.23;1.90;;;;;;;11.68;67.22;99024.06;5029754;28;20217;-75
2023/02/20 11:26:31;;;;;;;4.00;1.90;;;;;;;11.77;64.20;98997.00;5031108;28;20230;-75
2023/02/20 11:29:02;;;;;;;2.93;1.73;;;;;;;11.79;63.55;98987.19;5029783;28;20212;-75
2023/02/20 11:31:29;;;;;;;2.97;1.90;;;;;;;11.87;64.83;99003.47;5031602;28;20571;-75
2023/02/20 11:33:57;;;;;;;5.67;2.00;;;;;;;12.04;64.62;98998.00;5030958;28;20600;-79
2023/02/20 11:36:25;;;;;;;5.93;2.00;;;;;;;12.12;63.87;98987.78;5030787;28;20724;-76
2023/02/20 11:38:57;;;;;;;4.23;1.70;;;;;;;12.17;63.73;98985.69;5030944;28;20297;-77
2023/02/20 11:41:30;;;;;;;4.37;1.93;;;;;;;12.21;63.56;98979.25;5031056;28;20208;-78
2023/02/20 11:44:25;;;;;;;2.97;1.60;;;;;;;12.18;63.57;98977.63;5030744;28;20211;-77
2023/02/20 11:47:11;;;;;;;2.50;1.73;;;;;;;12.23;64.02;98980.00;5017308;28;20209;-84
2023/02/20 11:49:39;;;;;;;4.67;2.00;;;;;;;12.26;62.39;98958.59;5031239;28;20211;-83
2023/02/20 11:52:08;;;;;;;3.43;1.63;;;;;;;12.42;61.63;98957.53;5031049;28;20228;-83
2023/02/20 11:54:34;;;;;;;3.27;1.73;;;;;;;12.39;60.54;98947.13;5031009;28;20326;-88
2023/02/20 11:57:04;;;;;;;4.70;1.70;;;;;;;12.30;62.14;98953.00;5030561;28;20245;-83
2023/02/20 11:59:41;;;;;;;3.43;1.60;;;;;;;12.29;62.30;98948.66;5031070;28;20649;-81
2023/02/20 12:02:20;;;;;;;4.07;1.43;;;;;;;12.29;63.33;98953.13;5030954;28;20207;-81